createdAt,value
2023-02-14T00:00:50.351Z,19.52
2023-02-14T00:03:17.371Z,20.20
2023-02-14T00:05:44.316Z,19.50
2023-02-14T00:08:11.243Z,19.73
2023-02-14T00:10:38.196Z,22.23
2023-02-14T00:13:05.139Z,22.83
2023-02-14T00:15:32.046Z,22.80
2023-02-14T00:18:02.183Z,22.85
2023-02-14T00:20:29.430Z,21.85
2023-02-14T00:22:56.388Z,21.30
2023-02-14T00:25:23.499Z,22.10
2023-02-14T00:27:50.690Z,20.08
2023-02-14T00:30:17.656Z,23.00
2023-02-14T00:32:44.565Z,22.17
2023-02-14T00:35:11.882Z,22.13
2023-02-14T00:37:41.273Z,23.15
2023-02-14T00:40:08.779Z,23.80
2023-02-14T00:42:35.656Z,22.98
2023-02-14T00:45:02.698Z,21.80
2023-02-14T00:47:29.606Z,21.80
2023-02-14T00:49:56.524Z,20.38
2023-02-14T00:52:25.691Z,20.88
2023-02-14T00:54:52.503Z,23.73
2023-02-14T00:57:19.377Z,21.15
2023-02-14T00:59:46.250Z,20.25
2023-02-14T01:02:13.263Z,23.17
2023-02-14T01:04:40.343Z,22.67
2023-02-14T01:07:07.251Z,20.33
2023-02-14T01:09:35.280Z,21.30
2023-02-14T01:12:02.505Z,21.23
2023-02-14T01:14:29.464Z,15.48
2023-02-14T01:16:56.529Z,16.50
2023-02-14T01:19:24.693Z,15.77
2023-02-14T01:21:51.617Z,17.08
2023-02-14T01:24:18.551Z,16.52
2023-02-14T01:26:45.484Z,16.63
2023-02-14T01:29:12.412Z,18.30
2023-02-14T01:31:39.598Z,17.77
2023-02-14T01:34:06.624Z,17.45
2023-02-14T01:36:37.209Z,18.17
2023-02-14T01:39:11.626Z,17.08
2023-02-14T01:41:41.494Z,17.75
2023-02-14T01:44:28.442Z,17.95
2023-02-14T01:46:56.720Z,17.13
2023-02-14T01:49:28.474Z,17.77
2023-02-14T01:51:55.331Z,18.42
2023-02-14T01:54:25.201Z,16.27
2023-02-14T01:56:57.454Z,17.13
2023-02-14T01:59:32.432Z,18.55
2023-02-14T02:02:00.279Z,18.58
2023-02-14T02:04:32.523Z,18.77
2023-02-14T02:07:07.452Z,17.85
2023-02-14T02:09:39.161Z,17.67
2023-02-14T02:12:06.165Z,18.42
2023-02-14T02:14:33.949Z,17.80
2023-02-14T02:17:22.761Z,17.48
2023-02-14T02:20:28.633Z,17.08
2023-02-14T02:23:12.909Z,17.38
2023-02-14T02:26:24.890Z,16.90
2023-02-14T02:29:48.819Z,17.60
2023-02-14T02:32:27.361Z,16.10
2023-02-14T02:35:12.889Z,17.80
2023-02-14T02:37:58.502Z,17.45
2023-02-14T02:40:48.200Z,18.75
2023-02-14T02:43:30.472Z,16.67
2023-02-14T02:46:22.987Z,16.40
2023-02-14T02:48:59.217Z,18.13
2023-02-14T02:52:17.924Z,17.92
2023-02-14T02:54:52.499Z,16.67
2023-02-14T02:57:28.370Z,17.45
2023-02-14T02:59:57.771Z,18.83
2023-02-14T03:02:58.599Z,17.35
2023-02-14T03:05:28.464Z,18.33
2023-02-14T03:07:55.475Z,18.70
2023-02-14T03:10:26.021Z,18.67
2023-02-14T03:13:03.298Z,18.92
2023-02-14T03:15:41.559Z,18.33
2023-02-14T03:18:44.683Z,18.60
2023-02-14T03:21:22.297Z,16.55
2023-02-14T03:24:19.897Z,16.48
2023-02-14T03:27:06.081Z,18.90
2023-02-14T03:30:04.478Z,19.13
2023-02-14T03:32:39.062Z,18.15
2023-02-14T03:35:06.173Z,18.55
2023-02-14T03:37:54.247Z,18.25
2023-02-14T03:40:32.225Z,19.85
2023-02-14T03:43:06.232Z,19.45
2023-02-14T03:45:40.906Z,20.65
2023-02-14T03:48:16.073Z,17.55
2023-02-14T03:50:46.816Z,17.50
2023-02-14T03:53:17.251Z,18.58
2023-02-14T03:56:13.430Z,19.00
2023-02-14T03:58:51.973Z,19.30
2023-02-14T04:01:31.214Z,19.00
2023-02-14T04:03:59.654Z,19.05
2023-02-14T04:06:26.693Z,17.08
2023-02-14T04:08:53.728Z,17.80
2023-02-14T04:11:23.376Z,18.05
2023-02-14T04:13:51.444Z,17.63
2023-02-14T04:16:18.565Z,18.77
2023-02-14T04:19:04.104Z,19.55
2023-02-14T04:21:31.100Z,19.33
2023-02-14T04:23:58.100Z,18.35
2023-02-14T04:26:25.084Z,17.50
2023-02-14T04:28:52.071Z,17.30
2023-02-14T04:31:19.219Z,15.80
2023-02-14T04:33:48.121Z,17.63
2023-02-14T04:36:15.464Z,18.70
2023-02-14T04:38:42.565Z,19.48
2023-02-14T04:41:09.565Z,20.38
2023-02-14T04:43:36.707Z,20.73
2023-02-14T04:46:03.741Z,20.95
2023-02-14T04:48:30.746Z,19.63
2023-02-14T04:50:57.782Z,18.88
2023-02-14T04:53:24.902Z,19.40
2023-02-14T04:55:51.874Z,20.52
2023-02-14T04:58:18.985Z,19.10
2023-02-14T05:00:46.115Z,18.35
2023-02-14T05:03:13.176Z,17.70
2023-02-14T05:05:40.112Z,17.73
2023-02-14T05:08:07.072Z,17.23
2023-02-14T05:10:34.102Z,19.00
2023-02-14T05:13:02.097Z,17.40
2023-02-14T05:15:29.113Z,18.15
2023-02-14T05:17:56.164Z,18.85
2023-02-14T05:20:23.227Z,17.63
2023-02-14T05:22:50.403Z,17.85
2023-02-14T05:25:17.629Z,18.40
2023-02-14T05:27:44.653Z,19.80
2023-02-14T05:30:13.230Z,18.67
2023-02-14T05:32:41.085Z,18.92
2023-02-14T05:35:08.330Z,19.67
2023-02-14T05:37:35.280Z,19.08
2023-02-14T05:40:02.175Z,18.35
2023-02-14T05:42:29.057Z,19.33
2023-02-14T05:44:55.990Z,20.92
2023-02-14T05:47:22.950Z,21.35
2023-02-14T05:49:49.838Z,20.45
2023-02-14T05:52:16.939Z,21.90
2023-02-14T05:54:43.843Z,21.15
2023-02-14T05:57:10.731Z,22.42
2023-02-14T05:59:37.714Z,21.40
2023-02-14T06:02:05.746Z,20.70
2023-02-14T06:04:32.752Z,20.48
2023-02-14T06:06:59.928Z,21.17
2023-02-14T06:09:27.254Z,23.02
2023-02-14T06:11:55.347Z,20.23
2023-02-14T06:14:22.815Z,17.58
2023-02-14T06:16:50.006Z,19.02
2023-02-14T06:19:17.044Z,20.52
2023-02-14T06:21:44.074Z,19.95
2023-02-14T06:24:11.112Z,19.45
2023-02-14T06:26:38.088Z,18.98
2023-02-14T06:29:05.354Z,24.63
2023-02-14T06:31:32.533Z,21.80
2023-02-14T06:33:59.680Z,18.67
2023-02-14T06:36:27.373Z,19.25
2023-02-14T06:38:54.361Z,21.27
2023-02-14T06:41:21.395Z,20.70
2023-02-14T06:43:51.846Z,20.98
2023-02-14T06:46:20.593Z,22.25
2023-02-14T06:48:50.495Z,21.17
2023-02-14T06:51:17.860Z,21.13
2023-02-14T06:53:44.999Z,22.33
2023-02-14T06:56:12.060Z,22.90
2023-02-14T06:58:39.050Z,24.27
2023-02-14T07:01:06.110Z,23.90
2023-02-14T07:03:33.213Z,22.40
2023-02-14T07:06:00.612Z,22.98
2023-02-14T07:08:27.586Z,25.77
2023-02-14T07:10:58.880Z,23.45
2023-02-14T07:13:26.341Z,21.88
2023-02-14T07:15:53.531Z,22.95
2023-02-14T07:18:20.708Z,21.05
2023-02-14T07:20:47.781Z,19.65
2023-02-14T07:23:14.827Z,22.10
2023-02-14T07:25:52.345Z,19.45
2023-02-14T07:28:19.491Z,19.13
2023-02-14T07:30:46.640Z,19.83
2023-02-14T07:33:13.913Z,22.65
2023-02-14T07:35:41.403Z,20.70
2023-02-14T07:38:08.340Z,21.73
2023-02-14T07:40:35.311Z,21.35
2023-02-14T07:43:02.319Z,20.65
2023-02-14T07:45:29.756Z,21.75
2023-02-14T07:47:59.244Z,23.48
2023-02-14T07:50:26.559Z,21.25
2023-02-14T07:52:53.513Z,22.02
2023-02-14T07:55:21.161Z,21.42
2023-02-14T07:57:49.231Z,19.95
2023-02-14T08:00:29.530Z,20.13
2023-02-14T08:02:57.027Z,20.20
2023-02-14T08:05:24.154Z,22.60
2023-02-14T08:07:51.160Z,18.50
2023-02-14T08:10:18.380Z,20.17
2023-02-14T08:13:00.338Z,19.13
2023-02-14T08:15:46.842Z,20.70
2023-02-14T08:18:14.518Z,19.65
2023-02-14T08:20:41.882Z,20.83
2023-02-14T08:23:09.143Z,22.98
2023-02-14T08:29:45.487Z,24.00
2023-02-14T08:32:23.929Z,19.80
2023-02-14T08:34:50.977Z,18.60
2023-02-14T08:37:17.909Z,20.05
2023-02-14T08:39:52.345Z,19.73
2023-02-14T08:46:38.565Z,18.95
2023-02-14T08:49:05.890Z,20.25
2023-02-14T08:51:32.928Z,20.92
2023-02-14T08:54:05.496Z,19.95
2023-02-14T08:56:34.805Z,22.23
2023-02-14T08:59:05.442Z,18.95
2023-02-14T09:01:33.455Z,20.08
2023-02-14T09:04:04.136Z,18.52
2023-02-14T09:06:31.462Z,19.98
2023-02-14T09:09:01.508Z,22.73
2023-02-14T09:11:32.288Z,20.27
2023-02-14T09:13:59.305Z,18.55
2023-02-14T09:16:26.892Z,17.75
2023-02-14T09:18:57.537Z,18.80
2023-02-14T09:25:06.209Z,16.88
2023-02-14T09:27:39.379Z,16.40
2023-02-14T09:30:31.424Z,17.08
2023-02-14T09:33:00.362Z,17.52
2023-02-14T09:43:55.023Z,16.23
2023-02-14T09:46:24.751Z,17.30
2023-02-14T09:48:53.992Z,18.30
2023-02-14T09:51:25.718Z,17.25
2023-02-14T09:53:59.194Z,19.10
2023-02-14T09:56:50.323Z,18.67
2023-02-14T09:59:30.003Z,18.00
2023-02-14T10:02:21.219Z,16.05
2023-02-14T10:05:13.574Z,16.63
2023-02-14T10:08:07.596Z,15.43
2023-02-14T10:10:44.277Z,16.27
2023-02-14T10:13:16.425Z,17.42
2023-02-14T10:16:26.765Z,17.45
2023-02-14T10:19:04.928Z,16.88
2023-02-14T10:21:43.064Z,16.02
2023-02-14T10:24:23.545Z,16.67
2023-02-14T10:27:00.302Z,17.20
2023-02-14T10:34:38.756Z,16.67
2023-02-14T10:42:12.635Z,17.77
2023-02-14T10:45:07.666Z,18.98
2023-02-14T10:47:42.920Z,18.23
2023-02-14T10:50:23.449Z,19.95
2023-02-14T10:53:15.955Z,17.70
2023-02-14T10:55:54.983Z,19.27
2023-02-14T10:58:24.427Z,19.92
2023-02-14T11:00:58.897Z,19.58
2023-02-14T11:03:27.690Z,19.23
2023-02-14T11:05:54.898Z,17.75
2023-02-14T11:08:25.800Z,17.75
2023-02-14T11:10:59.004Z,17.73
2023-02-14T11:13:32.915Z,18.73
2023-02-14T11:16:14.396Z,18.35
2023-02-14T11:19:14.803Z,18.77
2023-02-14T11:21:45.928Z,17.70
2023-02-14T11:24:39.476Z,18.38
2023-02-14T11:27:18.400Z,18.17
2023-02-14T11:29:52.853Z,20.30
2023-02-14T11:32:29.800Z,19.45
2023-02-14T11:39:21.788Z,20.70
2023-02-14T11:41:53.704Z,20.10
2023-02-14T11:44:28.752Z,20.23
2023-02-14T11:47:25.120Z,20.98
2023-02-14T11:50:11.410Z,20.95
2023-02-14T11:52:55.184Z,20.63
2023-02-14T11:55:36.051Z,21.20
2023-02-14T11:58:05.880Z,22.08
2023-02-14T12:00:42.666Z,23.20
2023-02-14T12:03:35.257Z,22.23
2023-02-14T12:06:02.976Z,22.73
2023-02-14T12:08:32.122Z,23.33
2023-02-14T12:11:18.822Z,20.20
2023-02-14T12:13:57.617Z,23.88
2023-02-14T12:16:39.679Z,22.58
2023-02-14T12:19:16.561Z,21.92
2023-02-14T12:22:06.961Z,22.17
2023-02-14T12:24:40.034Z,21.80
2023-02-14T12:27:24.824Z,21.00
2023-02-14T12:30:02.144Z,23.60
2023-02-14T12:32:31.546Z,22.70
2023-02-14T12:35:20.429Z,22.77
2023-02-14T12:38:04.315Z,22.30
2023-02-14T12:41:01.918Z,22.98
2023-02-14T12:43:50.733Z,23.55
2023-02-14T12:46:58.286Z,23.17
2023-02-14T12:49:50.195Z,26.92
2023-02-14T12:52:41.843Z,25.70
2023-02-14T12:55:29.165Z,23.35
2023-02-14T12:58:26.699Z,27.33
2023-02-14T13:01:24.777Z,23.13
2023-02-14T13:04:39.959Z,23.85
2023-02-14T13:07:42.811Z,21.23
2023-02-14T13:10:45.429Z,23.33
2023-02-14T13:13:24.466Z,24.03
2023-02-14T13:16:04.334Z,22.95
2023-02-14T13:18:40.298Z,22.40
2023-02-14T13:21:11.743Z,22.58
2023-02-14T13:23:41.111Z,23.23
2023-02-14T13:26:29.530Z,22.90
2023-02-14T13:29:02.524Z,22.08
2023-02-14T13:34:06.966Z,21.92
2023-02-14T13:36:34.468Z,24.88
2023-02-14T13:39:02.466Z,24.55
2023-02-14T13:41:30.430Z,23.52
2023-02-14T13:44:02.786Z,23.00
2023-02-14T13:46:32.946Z,22.77
2023-02-14T13:49:28.071Z,24.58
2023-02-14T13:51:58.747Z,23.75
2023-02-14T13:54:47.111Z,24.60
2023-02-14T13:57:34.300Z,24.02
2023-02-14T14:00:16.533Z,24.15
2023-02-14T14:02:56.511Z,25.70
2023-02-14T14:05:32.590Z,23.38
2023-02-14T14:08:38.780Z,23.08
2023-02-14T14:11:12.062Z,25.73
2023-02-14T14:13:42.207Z,24.52
2023-02-14T14:16:26.348Z,24.45
2023-02-14T14:19:03.310Z,24.00
2023-02-14T14:21:34.724Z,24.85
2023-02-14T14:24:21.957Z,25.60
2023-02-14T14:27:03.964Z,25.25
2023-02-14T14:29:46.377Z,25.83
2023-02-14T14:32:25.238Z,26.52
2023-02-14T14:34:58.400Z,23.65
2023-02-14T14:37:31.712Z,24.20
2023-02-14T14:40:18.935Z,24.70
2023-02-14T14:42:48.664Z,25.00
2023-02-14T14:45:31.510Z,26.27
2023-02-14T14:48:02.975Z,24.23
2023-02-14T14:50:33.738Z,25.70
2023-02-14T14:53:09.714Z,25.55
2023-02-14T14:55:39.620Z,25.95
2023-02-14T14:58:28.134Z,27.35
2023-02-14T15:00:55.489Z,26.92
2023-02-14T15:03:25.561Z,29.15
2023-02-14T15:06:04.364Z,29.67
2023-02-14T15:08:32.348Z,26.98
2023-02-14T15:11:02.412Z,27.08
2023-02-14T15:13:51.138Z,28.48
2023-02-14T15:16:39.771Z,27.23
2023-02-14T15:19:23.925Z,29.55
2023-02-14T15:21:51.304Z,25.60
2023-02-14T15:24:19.690Z,26.25
2023-02-14T15:26:48.566Z,30.13
2023-02-14T15:29:29.550Z,26.95
2023-02-14T15:32:18.356Z,30.52
2023-02-14T15:34:45.538Z,28.45
2023-02-14T15:37:13.122Z,28.58
2023-02-14T15:39:52.667Z,26.40
2023-02-14T15:42:26.130Z,28.77
2023-02-14T15:45:18.260Z,27.50
2023-02-14T15:47:47.907Z,28.25
2023-02-14T15:50:31.637Z,28.25
2023-02-14T15:53:29.922Z,27.02
2023-02-14T15:56:26.196Z,28.23
2023-02-14T15:59:00.693Z,28.25
2023-02-14T16:01:28.831Z,28.83
2023-02-14T16:03:59.919Z,28.65
2023-02-14T16:06:36.197Z,27.83
2023-02-14T16:09:05.628Z,26.25
2023-02-14T16:11:35.644Z,27.48
2023-02-14T16:14:36.577Z,28.55
2023-02-14T16:17:12.881Z,28.80
2023-02-14T16:19:45.600Z,28.02
2023-02-14T16:22:25.682Z,28.65
2023-02-14T16:24:52.564Z,27.65
2023-02-14T16:27:19.550Z,28.58
2023-02-14T16:29:46.485Z,28.13
2023-02-14T16:32:20.156Z,28.27
2023-02-14T16:34:48.447Z,29.05
2023-02-14T16:37:25.953Z,26.73
2023-02-14T16:39:56.631Z,27.88
2023-02-14T16:42:24.960Z,27.15
2023-02-14T16:44:52.184Z,31.42
2023-02-14T16:47:21.294Z,30.08
2023-02-14T16:49:48.768Z,30.63
2023-02-14T16:52:26.106Z,28.70
2023-02-14T16:54:53.577Z,30.38
2023-02-14T16:57:30.602Z,29.95
2023-02-14T16:59:57.735Z,29.55
2023-02-14T17:02:28.500Z,30.60
2023-02-14T17:04:55.641Z,29.85
2023-02-14T17:07:23.129Z,30.70
2023-02-14T17:09:57.822Z,30.23
2023-02-14T17:12:28.812Z,31.75
2023-02-14T17:15:00.288Z,32.35
2023-02-14T17:17:27.339Z,31.55
2023-02-14T17:19:54.295Z,30.27
2023-02-14T17:22:21.274Z,30.55
2023-02-14T17:24:48.254Z,32.20
2023-02-14T17:27:15.252Z,31.70
2023-02-14T17:29:42.104Z,30.58
2023-02-14T17:32:14.209Z,31.58
2023-02-14T17:34:42.465Z,33.13
2023-02-14T17:37:09.564Z,28.58
2023-02-14T17:39:36.521Z,31.23
2023-02-14T17:42:03.844Z,28.92
2023-02-14T17:44:32.628Z,30.45
2023-02-14T17:46:59.582Z,29.83
2023-02-14T17:49:26.790Z,29.98
2023-02-14T17:51:53.845Z,31.33
2023-02-14T17:54:20.717Z,29.67
2023-02-14T17:56:47.669Z,28.27
2023-02-14T17:59:14.573Z,30.50
2023-02-14T18:01:41.561Z,30.13
2023-02-14T18:04:08.534Z,30.50
2023-02-14T18:06:36.295Z,31.40
2023-02-14T18:09:06.217Z,27.88
2023-02-14T18:11:33.653Z,29.95
2023-02-14T18:14:01.803Z,31.08
2023-02-14T18:16:29.331Z,30.90
2023-02-14T18:18:56.572Z,29.05
2023-02-14T18:21:24.794Z,30.23
2023-02-14T18:23:52.036Z,28.10
2023-02-14T18:26:19.673Z,28.25
2023-02-14T18:28:46.919Z,28.08
2023-02-14T18:31:16.857Z,28.92
2023-02-14T18:33:44.859Z,38.88
2023-02-14T18:36:14.334Z,34.78
2023-02-14T18:38:42.606Z,44.60
2023-02-14T18:41:11.877Z,29.52
2023-02-14T18:43:41.165Z,32.03
2023-02-14T18:46:18.489Z,35.45
2023-02-14T18:48:47.962Z,31.98
2023-02-14T18:51:19.297Z,31.17
2023-02-14T18:53:47.048Z,30.08
2023-02-14T18:56:16.793Z,30.23
2023-02-14T18:58:47.586Z,29.40
2023-02-14T19:01:22.107Z,27.75
2023-02-14T19:03:55.466Z,30.02
2023-02-14T19:06:31.452Z,37.22
2023-02-14T19:08:59.071Z,29.73
2023-02-14T19:11:30.484Z,27.58
2023-02-14T19:13:59.554Z,31.67
2023-02-14T19:16:33.274Z,31.08
2023-02-14T19:19:02.945Z,30.80
2023-02-14T19:21:33.929Z,33.60
2023-02-14T19:24:03.592Z,27.02
2023-02-14T19:26:35.043Z,27.83
2023-02-14T19:29:05.617Z,24.83
2023-02-14T19:31:36.678Z,26.08
2023-02-14T19:34:06.449Z,27.73
2023-02-14T19:36:36.425Z,27.48
2023-02-14T19:39:04.369Z,27.85
2023-02-14T19:41:41.032Z,26.58
2023-02-14T19:44:10.257Z,24.05
2023-02-14T19:46:38.704Z,25.75
2023-02-14T19:49:05.937Z,24.75
2023-02-14T19:51:36.212Z,27.00
2023-02-14T19:54:06.191Z,24.83
2023-02-14T19:56:36.687Z,24.10
2023-02-14T19:59:07.864Z,23.20
2023-02-14T20:01:46.242Z,30.17
2023-02-14T20:04:16.423Z,29.40
2023-02-14T20:06:45.061Z,25.85
2023-02-14T20:09:13.014Z,24.42
2023-02-14T20:11:50.201Z,24.92
2023-02-14T20:14:23.927Z,24.75
2023-02-14T20:16:52.606Z,23.10
2023-02-14T20:19:22.228Z,26.15
2023-02-14T20:21:52.683Z,25.25
2023-02-14T20:24:25.325Z,23.40
2023-02-14T20:26:53.249Z,24.90
2023-02-14T20:29:22.793Z,25.05
2023-02-14T20:31:53.075Z,22.67
2023-02-14T20:34:21.381Z,23.35
2023-02-14T20:36:53.036Z,23.08
2023-02-14T20:39:21.417Z,22.85
2023-02-14T20:41:53.172Z,23.50
2023-02-14T20:44:21.683Z,25.13
2023-02-14T20:46:51.596Z,21.83
2023-02-14T20:49:19.797Z,23.13
2023-02-14T20:51:49.731Z,23.42
2023-02-14T20:54:21.749Z,22.13
2023-02-14T20:56:51.286Z,22.17
2023-02-14T20:59:27.316Z,21.05
2023-02-14T21:01:55.998Z,20.98
2023-02-14T21:04:23.410Z,21.58
2023-02-14T21:06:50.548Z,21.08
2023-02-14T21:09:18.691Z,22.48
2023-02-14T21:11:45.808Z,21.77
2023-02-14T21:14:13.197Z,22.38
2023-02-14T21:16:40.124Z,23.60
2023-02-14T21:19:07.055Z,23.27
2023-02-14T21:21:37.747Z,21.98
2023-02-14T21:24:11.247Z,21.83
2023-02-14T21:26:38.939Z,22.85
2023-02-14T21:29:07.110Z,23.38
2023-02-14T21:31:34.720Z,21.13
2023-02-14T21:34:02.785Z,22.33
2023-02-14T21:36:31.868Z,19.88
2023-02-14T21:39:00.129Z,20.63
2023-02-14T21:41:31.740Z,20.15
2023-02-14T21:44:00.155Z,19.52
2023-02-14T21:46:33.432Z,19.60
2023-02-14T21:49:21.011Z,19.33
2023-02-14T21:51:54.077Z,19.88
2023-02-14T21:54:24.156Z,20.23
2023-02-14T21:56:51.148Z,18.83
2023-02-14T21:59:18.013Z,18.40
2023-02-14T22:01:44.989Z,18.67
2023-02-14T22:04:12.939Z,20.30
2023-02-14T22:06:41.886Z,20.52
2023-02-14T22:09:10.859Z,19.20
2023-02-14T22:11:37.966Z,19.67
2023-02-14T22:14:04.985Z,18.65
2023-02-14T22:16:32.266Z,20.40
2023-02-14T22:18:59.292Z,19.63
2023-02-14T22:21:27.338Z,19.00
2023-02-14T22:23:55.405Z,19.05
2023-02-14T22:26:25.718Z,20.33
2023-02-14T22:28:56.806Z,18.85
2023-02-14T22:31:50.066Z,18.88
2023-02-14T22:34:19.856Z,20.75
2023-02-14T22:36:48.624Z,19.45
2023-02-14T22:39:17.031Z,20.70
2023-02-14T22:41:44.678Z,20.63
2023-02-14T22:44:12.830Z,22.25
2023-02-14T22:46:40.024Z,21.05
2023-02-14T22:49:07.568Z,20.15
2023-02-14T22:51:41.726Z,19.45
2023-02-14T22:54:32.898Z,18.88
2023-02-14T22:57:11.669Z,19.50
2023-02-14T22:59:43.336Z,19.58
2023-02-14T23:02:19.781Z,19.92
2023-02-14T23:04:47.996Z,20.60
2023-02-14T23:07:16.094Z,19.45
2023-02-14T23:09:48.767Z,20.40
2023-02-14T23:12:38.039Z,19.00
2023-02-14T23:15:28.110Z,19.50
2023-02-14T23:18:13.688Z,22.60
2023-02-14T23:20:59.182Z,19.15
2023-02-14T23:23:30.754Z,21.70
2023-02-14T23:25:57.822Z,19.65
2023-02-14T23:28:25.217Z,17.75
2023-02-14T23:30:52.192Z,18.55
2023-02-14T23:33:19.170Z,18.75
2023-02-14T23:35:46.040Z,19.60
2023-02-14T23:38:13.035Z,19.00
2023-02-14T23:40:58.512Z,19.75
2023-02-14T23:43:25.432Z,19.67
2023-02-14T23:45:52.612Z,18.30
2023-02-14T23:48:19.625Z,16.77
2023-02-14T23:50:46.555Z,18.90
2023-02-14T23:53:15.373Z,19.58
2023-02-14T23:55:42.230Z,16.63
2023-02-14T23:58:09.226Z,18.40
